Charter Quote
Worldwide +44-20-3874-8091 Call
Select Language Lang
SAFETY RELIABILITY EXPERIENCE

Hang Nadim Airport (WIDD) - Jet Charter Services

AIRPORT INFORMATION
ICAOWIDD
IATABTH
LOCATIONBatam Is., Indonesia
FACILITY TYPEAIRPORT
Runway Length (ft) Width (ft) Surface Type Elevation (ft)
22/04 13256 148 ASP 125.90164

At Paramount Business Jets you can hire chartered private jets to and from Hang Nadim Airport with as little as 4 hours of notice. All flights booked via Paramount Business Jets are operated by certified direct air carriers that meet and exceed the FAA part 135 and 121 protocol or a foreign equivalent safety authority. Furthermore, Paramount Business Jets subscribes to ARGUS for their third party safety checks of operators, aircraft, and crews prior each and every flight to and from Hang Nadim Airport and worldwide.

  • Quote a trip using Hang Nadim Airport or call us 24/7 - 365 days a year at +44-20-3874-8091.
Questions? Call +44-20-3874-8091

FBOs at Hang Nadim Airport, WIDD, BTH

NAME ADDRESS PHONE WEBSITE
Merpati Nusantara    (627) 785-8585   
Batam Airmars Service (B.A.S.)    (627) 787-1307   

METAR Weather Data at Hang Nadim Airport, WIDD, BTH

STATIONWIDD
OBSERVEDFri Mar 22, 21:30 UTC
NOWFri Mar 22, 22:09 UTC
AGE39 min ago
WINDcalm
METARWIDD 222130Z AUTO 00000KT 8000NDV BKN036 OVC042 25/25 Q1011

Call us on +44-20-3874-8091 (24 Hours) to Hire a Private Jet or Get a Quick Quote.

Find Airports Near any Location

Processing
...